sensor_id;sensor_type;location;lat;lon;timestamp;temperature;humidity
47168;DHT22;32931;47.778;17.806;2024-03-23T00:53:58;13.10;90.60
47168;DHT22;32931;47.778;17.806;2024-03-23T00:56:25;13.10;90.80
47168;DHT22;32931;47.778;17.806;2024-03-23T00:58:51;13.10;90.60
47168;DHT22;32931;47.778;17.806;2024-03-23T01:01:17;13.10;90.60
47168;DHT22;32931;47.778;17.806;2024-03-23T01:03:43;13.10;90.70
47168;DHT22;32931;47.778;17.806;2024-03-23T01:06:09;13.20;90.60
47168;DHT22;32931;47.778;17.806;2024-03-23T01:08:35;13.20;90.60
47168;DHT22;32931;47.778;17.806;2024-03-23T01:11:02;13.20;90.70
47168;DHT22;32931;47.778;17.806;2024-03-23T01:13:30;13.20;90.70
47168;DHT22;32931;47.778;17.806;2024-03-23T01:15:57;13.20;90.70
47168;DHT22;32931;47.778;17.806;2024-03-23T01:18:23;13.30;90.70
47168;DHT22;32931;47.778;17.806;2024-03-23T01:20:50;13.20;90.60
47168;DHT22;32931;47.778;17.806;2024-03-23T01:23:16;13.20;90.70
47168;DHT22;32931;47.778;17.806;2024-03-23T01:25:42;13.30;90.70
47168;DHT22;32931;47.778;17.806;2024-03-23T01:28:08;13.30;90.70
47168;DHT22;32931;47.778;17.806;2024-03-23T01:30:35;13.30;90.70
47168;DHT22;32931;47.778;17.806;2024-03-23T01:33:02;13.30;90.60
47168;DHT22;32931;47.778;17.806;2024-03-23T01:35:31;13.30;90.60
47168;DHT22;32931;47.778;17.806;2024-03-23T01:37:57;13.30;90.50
47168;DHT22;32931;47.778;17.806;2024-03-23T01:40:23;13.30;90.60
47168;DHT22;32931;47.778;17.806;2024-03-23T01:43:03;13.30;90.50
47168;DHT22;32931;47.778;17.806;2024-03-23T01:45:33;13.40;90.60
47168;DHT22;32931;47.778;17.806;2024-03-23T01:48:00;13.40;90.60
47168;DHT22;32931;47.778;17.806;2024-03-23T01:50:27;13.40;90.60
47168;DHT22;32931;47.778;17.806;2024-03-23T01:52:53;13.40;90.60
47168;DHT22;32931;47.778;17.806;2024-03-23T01:55:20;13.40;90.70
47168;DHT22;32931;47.778;17.806;2024-03-23T01:57:46;13.40;90.70
47168;DHT22;32931;47.778;17.806;2024-03-23T02:00:13;13.40;90.80
47168;DHT22;32931;47.778;17.806;2024-03-23T02:02:46;13.30;90.80
47168;DHT22;32931;47.778;17.806;2024-03-23T02:05:13;13.40;90.80
47168;DHT22;32931;47.778;17.806;2024-03-23T02:07:41;13.40;90.90
47168;DHT22;32931;47.778;17.806;2024-03-23T02:10:07;13.40;90.90
47168;DHT22;32931;47.778;17.806;2024-03-23T02:12:36;13.40;90.90
47168;DHT22;32931;47.778;17.806;2024-03-23T02:15:03;13.40;91.00
47168;DHT22;32931;47.778;17.806;2024-03-23T02:17:31;13.40;91.00
47168;DHT22;32931;47.778;17.806;2024-03-23T02:19:58;13.40;91.10
47168;DHT22;32931;47.778;17.806;2024-03-23T02:22:24;13.40;91.10
47168;DHT22;32931;47.778;17.806;2024-03-23T02:24:50;13.40;91.10
47168;DHT22;32931;47.778;17.806;2024-03-23T02:27:16;13.40;91.10
47168;DHT22;32931;47.778;17.806;2024-03-23T02:29:42;13.40;91.20
47168;DHT22;32931;47.778;17.806;2024-03-23T02:32:08;13.40;91.20
47168;DHT22;32931;47.778;17.806;2024-03-23T02:34:35;13.40;91.40
47168;DHT22;32931;47.778;17.806;2024-03-23T02:37:02;13.40;91.20
47168;DHT22;32931;47.778;17.806;2024-03-23T02:39:28;13.40;91.30
47168;DHT22;32931;47.778;17.806;2024-03-23T02:41:54;13.40;91.30
47168;DHT22;32931;47.778;17.806;2024-03-23T02:44:20;13.30;91.30
47168;DHT22;32931;47.778;17.806;2024-03-23T02:46:46;13.40;91.40
47168;DHT22;32931;47.778;17.806;2024-03-23T02:49:13;13.40;91.40
47168;DHT22;32931;47.778;17.806;2024-03-23T02:51:40;13.30;91.40
47168;DHT22;32931;47.778;17.806;2024-03-23T02:54:06;13.30;91.40
47168;DHT22;32931;47.778;17.806;2024-03-23T02:56:33;13.30;91.40
47168;DHT22;32931;47.778;17.806;2024-03-23T02:58:59;13.30;91.50
47168;DHT22;32931;47.778;17.806;2024-03-23T03:01:25;13.30;91.60
47168;DHT22;32931;47.778;17.806;2024-03-23T03:03:51;13.30;91.60
47168;DHT22;32931;47.778;17.806;2024-03-23T03:06:27;13.30;91.70
47168;DHT22;32931;47.778;17.806;2024-03-23T03:08:53;13.30;91.80
47168;DHT22;32931;47.778;17.806;2024-03-23T03:11:19;13.30;91.70
47168;DHT22;32931;47.778;17.806;2024-03-23T03:13:46;13.30;91.70
47168;DHT22;32931;47.778;17.806;2024-03-23T03:16:12;13.30;91.80
47168;DHT22;32931;47.778;17.806;2024-03-23T03:18:39;13.30;91.80
47168;DHT22;32931;47.778;17.806;2024-03-23T03:21:06;13.30;91.80
47168;DHT22;32931;47.778;17.806;2024-03-23T03:23:37;13.30;91.90
47168;DHT22;32931;47.778;17.806;2024-03-23T03:26:04;13.30;91.90
47168;DHT22;32931;47.778;17.806;2024-03-23T03:28:34;13.30;91.90
47168;DHT22;32931;47.778;17.806;2024-03-23T03:31:00;13.30;91.90
47168;DHT22;32931;47.778;17.806;2024-03-23T03:33:28;13.30;91.90
47168;DHT22;32931;47.778;17.806;2024-03-23T03:35:55;13.20;92.00
47168;DHT22;32931;47.778;17.806;2024-03-23T03:38:21;13.30;92.00
47168;DHT22;32931;47.778;17.806;2024-03-23T03:40:47;13.30;92.00
47168;DHT22;32931;47.778;17.806;2024-03-23T03:43:14;13.30;92.00
47168;DHT22;32931;47.778;17.806;2024-03-23T03:45:40;13.30;92.00
47168;DHT22;32931;47.778;17.806;2024-03-23T03:48:06;13.30;92.00
47168;DHT22;32931;47.778;17.806;2024-03-23T03:50:33;13.30;92.10
47168;DHT22;32931;47.778;17.806;2024-03-23T03:52:59;13.30;92.10
47168;DHT22;32931;47.778;17.806;2024-03-23T03:55:25;13.30;92.10
47168;DHT22;32931;47.778;17.806;2024-03-23T03:57:51;13.30;92.10
47168;DHT22;32931;47.778;17.806;2024-03-23T04:00:18;13.40;92.10
47168;DHT22;32931;47.778;17.806;2024-03-23T04:02:44;13.40;92.10
47168;DHT22;32931;47.778;17.806;2024-03-23T04:05:10;13.40;92.10
47168;DHT22;32931;47.778;17.806;2024-03-23T04:07:36;13.40;92.20
47168;DHT22;32931;47.778;17.806;2024-03-23T04:10:03;13.40;92.10
47168;DHT22;32931;47.778;17.806;2024-03-23T04:12:33;13.40;92.10
47168;DHT22;32931;47.778;17.806;2024-03-23T04:15:00;13.40;92.10
47168;DHT22;32931;47.778;17.806;2024-03-23T04:17:27;13.40;92.10
47168;DHT22;32931;47.778;17.806;2024-03-23T04:19:58;13.40;92.20
47168;DHT22;32931;47.778;17.806;2024-03-23T04:22:24;13.40;92.20
47168;DHT22;32931;47.778;17.806;2024-03-23T04:24:56;13.40;92.30
47168;DHT22;32931;47.778;17.806;2024-03-23T04:27:23;13.40;92.30
47168;DHT22;32931;47.778;17.806;2024-03-23T04:29:50;13.40;92.30
47168;DHT22;32931;47.778;17.806;2024-03-23T04:32:16;13.50;92.40
47168;DHT22;32931;47.778;17.806;2024-03-23T04:34:43;13.40;92.50
47168;DHT22;32931;47.778;17.806;2024-03-23T04:37:10;13.50;92.60
47168;DHT22;32931;47.778;17.806;2024-03-23T04:39:37;13.50;92.50
47168;DHT22;32931;47.778;17.806;2024-03-23T04:42:04;13.50;92.60
47168;DHT22;32931;47.778;17.806;2024-03-23T04:44:31;13.50;92.70
47168;DHT22;32931;47.778;17.806;2024-03-23T04:46:57;13.50;92.70
47168;DHT22;32931;47.778;17.806;2024-03-23T04:49:23;13.50;92.60
47168;DHT22;32931;47.778;17.806;2024-03-23T04:51:50;13.50;92.80
47168;DHT22;32931;47.778;17.806;2024-03-23T04:54:16;13.50;92.80
47168;DHT22;32931;47.778;17.806;2024-03-23T04:56:42;13.40;93.00
47168;DHT22;32931;47.778;17.806;2024-03-23T04:59:08;13.40;93.10
47168;DHT22;32931;47.778;17.806;2024-03-23T05:01:34;13.30;93.10
47168;DHT22;32931;47.778;17.806;2024-03-23T05:04:01;13.30;93.20
47168;DHT22;32931;47.778;17.806;2024-03-23T05:06:27;13.30;93.20
47168;DHT22;32931;47.778;17.806;2024-03-23T05:08:54;13.20;93.30
47168;DHT22;32931;47.778;17.806;2024-03-23T05:11:20;13.20;93.60
47168;DHT22;32931;47.778;17.806;2024-03-23T05:13:46;13.10;93.70
47168;DHT22;32931;47.778;17.806;2024-03-23T05:16:13;13.10;93.80
47168;DHT22;32931;47.778;17.806;2024-03-23T05:18:39;13.10;93.90
47168;DHT22;32931;47.778;17.806;2024-03-23T05:21:05;13.10;93.90
47168;DHT22;32931;47.778;17.806;2024-03-23T05:23:31;13.10;94.00
47168;DHT22;32931;47.778;17.806;2024-03-23T05:25:57;13.10;94.10
47168;DHT22;32931;47.778;17.806;2024-03-23T05:28:23;13.10;94.10
47168;DHT22;32931;47.778;17.806;2024-03-23T05:30:53;13.10;94.10
47168;DHT22;32931;47.778;17.806;2024-03-23T05:33:20;13.10;94.20
47168;DHT22;32931;47.778;17.806;2024-03-23T05:35:47;13.10;94.30
47168;DHT22;32931;47.778;17.806;2024-03-23T05:38:21;13.10;94.50
47168;DHT22;32931;47.778;17.806;2024-03-23T05:40:58;13.10;94.70
47168;DHT22;32931;47.778;17.806;2024-03-23T05:43:25;13.10;95.00
47168;DHT22;32931;47.778;17.806;2024-03-23T05:45:58;13.20;94.90
47168;DHT22;32931;47.778;17.806;2024-03-23T05:48:26;13.20;95.00
47168;DHT22;32931;47.778;17.806;2024-03-23T05:50:52;13.20;95.10
47168;DHT22;32931;47.778;17.806;2024-03-23T05:53:19;13.20;95.10
47168;DHT22;32931;47.778;17.806;2024-03-23T05:55:49;13.20;95.10
47168;DHT22;32931;47.778;17.806;2024-03-23T05:58:16;13.20;95.20
47168;DHT22;32931;47.778;17.806;2024-03-23T06:00:42;13.20;95.40
47168;DHT22;32931;47.778;17.806;2024-03-23T06:03:09;13.20;95.50
47168;DHT22;32931;47.778;17.806;2024-03-23T06:05:37;13.20;95.60
47168;DHT22;32931;47.778;17.806;2024-03-23T06:08:03;13.30;95.70
47168;DHT22;32931;47.778;17.806;2024-03-23T06:10:30;13.30;95.80
47168;DHT22;32931;47.778;17.806;2024-03-23T06:12:57;13.30;95.70
47168;DHT22;32931;47.778;17.806;2024-03-23T06:15:25;13.40;95.80
47168;DHT22;32931;47.778;17.806;2024-03-23T06:17:53;13.40;95.80
47168;DHT22;32931;47.778;17.806;2024-03-23T06:20:19;13.40;95.80
47168;DHT22;32931;47.778;17.806;2024-03-23T06:22:45;13.50;95.70
47168;DHT22;32931;47.778;17.806;2024-03-23T06:25:11;13.50;95.70
47168;DHT22;32931;47.778;17.806;2024-03-23T06:27:38;13.60;95.80
47168;DHT22;32931;47.778;17.806;2024-03-23T06:30:05;13.60;96.00
47168;DHT22;32931;47.778;17.806;2024-03-23T06:32:32;13.70;96.00
47168;DHT22;32931;47.778;17.806;2024-03-23T06:34:59;13.80;96.10
47168;DHT22;32931;47.778;17.806;2024-03-23T06:37:25;13.90;96.20
47168;DHT22;32931;47.778;17.806;2024-03-23T06:39:51;13.90;96.20
47168;DHT22;32931;47.778;17.806;2024-03-23T06:42:17;14.00;96.20
47168;DHT22;32931;47.778;17.806;2024-03-23T06:44:44;14.10;96.30
47168;DHT22;32931;47.778;17.806;2024-03-23T06:47:10;14.10;96.30
47168;DHT22;32931;47.778;17.806;2024-03-23T06:49:36;14.20;96.30
47168;DHT22;32931;47.778;17.806;2024-03-23T06:52:02;14.30;96.30
47168;DHT22;32931;47.778;17.806;2024-03-23T06:54:29;14.30;96.00
47168;DHT22;32931;47.778;17.806;2024-03-23T06:56:55;14.40;96.00
47168;DHT22;32931;47.778;17.806;2024-03-23T06:59:21;14.40;96.00
47168;DHT22;32931;47.778;17.806;2024-03-23T07:01:47;14.50;96.10
47168;DHT22;32931;47.778;17.806;2024-03-23T07:04:13;14.60;96.10
47168;DHT22;32931;47.778;17.806;2024-03-23T07:06:43;14.60;96.00
47168;DHT22;32931;47.778;17.806;2024-03-23T07:09:10;14.70;96.10
47168;DHT22;32931;47.778;17.806;2024-03-23T07:11:36;14.70;96.10
47168;DHT22;32931;47.778;17.806;2024-03-23T07:14:03;14.80;96.00
47168;DHT22;32931;47.778;17.806;2024-03-23T07:16:29;14.80;96.00
47168;DHT22;32931;47.778;17.806;2024-03-23T07:18:55;14.90;95.80
47168;DHT22;32931;47.778;17.806;2024-03-23T07:21:22;14.90;95.80
47168;DHT22;32931;47.778;17.806;2024-03-23T07:23:48;15.00;95.80
47168;DHT22;32931;47.778;17.806;2024-03-23T07:26:14;15.10;95.80
47168;DHT22;32931;47.778;17.806;2024-03-23T07:28:40;15.20;95.90
47168;DHT22;32931;47.778;17.806;2024-03-23T07:31:13;15.20;95.70
47168;DHT22;32931;47.778;17.806;2024-03-23T07:33:45;15.30;95.60
47168;DHT22;32931;47.778;17.806;2024-03-23T07:36:11;15.30;95.30
47168;DHT22;32931;47.778;17.806;2024-03-23T07:38:40;15.30;95.50
47168;DHT22;32931;47.778;17.806;2024-03-23T07:41:09;15.40;95.40
47168;DHT22;32931;47.778;17.806;2024-03-23T07:43:36;15.50;95.30
47168;DHT22;32931;47.778;17.806;2024-03-23T07:46:03;15.50;95.20
47168;DHT22;32931;47.778;17.806;2024-03-23T07:48:32;15.60;95.10
47168;DHT22;32931;47.778;17.806;2024-03-23T07:51:03;15.70;95.20
47168;DHT22;32931;47.778;17.806;2024-03-23T07:53:31;15.80;94.90
47168;DHT22;32931;47.778;17.806;2024-03-23T07:55:59;15.70;94.60
47168;DHT22;32931;47.778;17.806;2024-03-23T07:58:26;15.80;94.70
47168;DHT22;32931;47.778;17.806;2024-03-23T08:00:56;15.80;94.50
47168;DHT22;32931;47.778;17.806;2024-03-23T08:03:23;15.70;93.20
47168;DHT22;32931;47.778;17.806;2024-03-23T08:05:49;15.60;93.00
47168;DHT22;32931;47.778;17.806;2024-03-23T08:08:15;15.60;92.60
47168;DHT22;32931;47.778;17.806;2024-03-23T08:10:51;15.70;92.20
47168;DHT22;32931;47.778;17.806;2024-03-23T08:13:18;15.90;91.30
47168;DHT22;32931;47.778;17.806;2024-03-23T08:15:45;16.00;91.50
47168;DHT22;32931;47.778;17.806;2024-03-23T08:18:12;16.10;91.50
47168;DHT22;32931;47.778;17.806;2024-03-23T08:20:41;16.20;91.40
47168;DHT22;32931;47.778;17.806;2024-03-23T08:23:07;16.30;91.10
47168;DHT22;32931;47.778;17.806;2024-03-23T08:25:34;16.40;90.80
47168;DHT22;32931;47.778;17.806;2024-03-23T08:28:01;16.40;90.50
47168;DHT22;32931;47.778;17.806;2024-03-23T08:30:28;16.50;90.40
47168;DHT22;32931;47.778;17.806;2024-03-23T08:32:54;16.60;90.50
47168;DHT22;32931;47.778;17.806;2024-03-23T08:35:20;16.70;90.60
47168;DHT22;32931;47.778;17.806;2024-03-23T08:37:46;16.80;90.40
47168;DHT22;32931;47.778;17.806;2024-03-23T08:40:12;16.90;90.30
47168;DHT22;32931;47.778;17.806;2024-03-23T08:42:38;16.90;90.10
47168;DHT22;32931;47.778;17.806;2024-03-23T08:45:05;16.90;89.80
47168;DHT22;32931;47.778;17.806;2024-03-23T08:47:36;17.00;90.10
47168;DHT22;32931;47.778;17.806;2024-03-23T08:50:02;17.00;89.70
47168;DHT22;32931;47.778;17.806;2024-03-23T08:52:28;17.00;89.40
47168;DHT22;32931;47.778;17.806;2024-03-23T08:54:55;17.00;89.20
47168;DHT22;32931;47.778;17.806;2024-03-23T08:57:23;17.10;89.30
47168;DHT22;32931;47.778;17.806;2024-03-23T08:59:49;17.20;88.40
47168;DHT22;32931;47.778;17.806;2024-03-23T09:02:16;17.20;87.80
47168;DHT22;32931;47.778;17.806;2024-03-23T09:04:42;17.20;87.40
47168;DHT22;32931;47.778;17.806;2024-03-23T09:07:09;17.20;87.20
47168;DHT22;32931;47.778;17.806;2024-03-23T09:09:38;17.20;87.20
47168;DHT22;32931;47.778;17.806;2024-03-23T09:12:04;17.20;86.70
47168;DHT22;32931;47.778;17.806;2024-03-23T09:14:31;17.20;86.60
47168;DHT22;32931;47.778;17.806;2024-03-23T09:16:57;17.20;87.20
47168;DHT22;32931;47.778;17.806;2024-03-23T09:19:23;17.20;87.30
47168;DHT22;32931;47.778;17.806;2024-03-23T09:21:49;17.30;87.10
47168;DHT22;32931;47.778;17.806;2024-03-23T09:24:16;17.30;86.70
47168;DHT22;32931;47.778;17.806;2024-03-23T09:26:42;17.30;86.80
47168;DHT22;32931;47.778;17.806;2024-03-23T09:29:08;17.40;86.30
47168;DHT22;32931;47.778;17.806;2024-03-23T09:31:34;17.40;86.40
47168;DHT22;32931;47.778;17.806;2024-03-23T09:34:00;17.40;85.90
47168;DHT22;32931;47.778;17.806;2024-03-23T09:36:26;17.50;86.20
47168;DHT22;32931;47.778;17.806;2024-03-23T09:38:52;17.50;85.80
47168;DHT22;32931;47.778;17.806;2024-03-23T09:41:19;17.60;85.20
47168;DHT22;32931;47.778;17.806;2024-03-23T09:43:46;17.60;85.10
47168;DHT22;32931;47.778;17.806;2024-03-23T09:46:14;17.70;85.70
47168;DHT22;32931;47.778;17.806;2024-03-23T09:48:42;17.80;85.60
47168;DHT22;32931;47.778;17.806;2024-03-23T09:51:09;17.90;84.90
47168;DHT22;32931;47.778;17.806;2024-03-23T09:53:37;17.90;84.60
47168;DHT22;32931;47.778;17.806;2024-03-23T09:56:03;18.00;84.40
47168;DHT22;32931;47.778;17.806;2024-03-23T09:58:30;18.10;84.50
47168;DHT22;32931;47.778;17.806;2024-03-23T10:00:58;18.10;84.80
47168;DHT22;32931;47.778;17.806;2024-03-23T10:03:24;18.20;84.60
47168;DHT22;32931;47.778;17.806;2024-03-23T10:06:03;18.20;84.70
47168;DHT22;32931;47.778;17.806;2024-03-23T10:08:30;18.20;84.30
47168;DHT22;32931;47.778;17.806;2024-03-23T10:11:13;18.30;84.10
47168;DHT22;32931;47.778;17.806;2024-03-23T10:13:44;18.30;83.50
47168;DHT22;32931;47.778;17.806;2024-03-23T10:16:12;18.30;83.80
47168;DHT22;32931;47.778;17.806;2024-03-23T10:18:39;18.30;84.30
47168;DHT22;32931;47.778;17.806;2024-03-23T10:21:06;18.30;83.90
47168;DHT22;32931;47.778;17.806;2024-03-23T10:23:34;18.30;83.50
47168;DHT22;32931;47.778;17.806;2024-03-23T10:26:24;18.30;83.40
47168;DHT22;32931;47.778;17.806;2024-03-23T10:29:02;18.30;82.80
47168;DHT22;32931;47.778;17.806;2024-03-23T10:31:34;18.30;83.70
47168;DHT22;32931;47.778;17.806;2024-03-23T10:34:03;18.30;84.20
47168;DHT22;32931;47.778;17.806;2024-03-23T10:36:30;18.30;84.10
47168;DHT22;32931;47.778;17.806;2024-03-23T10:38:56;18.30;83.30
47168;DHT22;32931;47.778;17.806;2024-03-23T10:41:31;18.30;83.30
47168;DHT22;32931;47.778;17.806;2024-03-23T10:43:58;18.30;83.60
47168;DHT22;32931;47.778;17.806;2024-03-23T10:46:25;18.30;83.10
47168;DHT22;32931;47.778;17.806;2024-03-23T10:48:51;18.30;82.70
47168;DHT22;32931;47.778;17.806;2024-03-23T10:51:17;18.30;82.60
47168;DHT22;32931;47.778;17.806;2024-03-23T10:53:45;18.30;83.10
47168;DHT22;32931;47.778;17.806;2024-03-23T10:56:12;18.30;83.20
47168;DHT22;32931;47.778;17.806;2024-03-23T10:58:45;18.40;83.20
47168;DHT22;32931;47.778;17.806;2024-03-23T11:01:15;18.40;82.60
47168;DHT22;32931;47.778;17.806;2024-03-23T11:03:46;18.40;83.00
47168;DHT22;32931;47.778;17.806;2024-03-23T11:06:38;18.40;82.60
47168;DHT22;32931;47.778;17.806;2024-03-23T11:15:05;18.30;82.10
47168;DHT22;32931;47.778;17.806;2024-03-23T11:17:31;18.30;82.80
47168;DHT22;32931;47.778;17.806;2024-03-23T11:20:04;18.30;82.80
47168;DHT22;32931;47.778;17.806;2024-03-23T11:22:45;18.40;83.00
47168;DHT22;32931;47.778;17.806;2024-03-23T11:25:20;18.50;82.30
47168;DHT22;32931;47.778;17.806;2024-03-23T11:30:19;18.50;82.20
47168;DHT22;32931;47.778;17.806;2024-03-23T11:32:49;18.50;82.50
47168;DHT22;32931;47.778;17.806;2024-03-23T11:35:31;18.50;82.50
47168;DHT22;32931;47.778;17.806;2024-03-23T11:38:15;18.50;81.80
47168;DHT22;32931;47.778;17.806;2024-03-23T11:40:45;18.50;81.40
47168;DHT22;32931;47.778;17.806;2024-03-23T11:43:16;18.50;82.10
47168;DHT22;32931;47.778;17.806;2024-03-23T11:45:43;18.70;82.40
47168;DHT22;32931;47.778;17.806;2024-03-23T11:48:12;18.80;82.50
47168;DHT22;32931;47.778;17.806;2024-03-23T11:50:40;18.90;81.80
47168;DHT22;32931;47.778;17.806;2024-03-23T11:53:12;19.00;81.90
47168;DHT22;32931;47.778;17.806;2024-03-23T11:55:41;19.10;82.20
47168;DHT22;32931;47.778;17.806;2024-03-23T11:58:07;19.30;82.00
47168;DHT22;32931;47.778;17.806;2024-03-23T12:00:34;19.30;81.70
47168;DHT22;32931;47.778;17.806;2024-03-23T12:03:02;19.40;81.00
47168;DHT22;32931;47.778;17.806;2024-03-23T12:05:29;19.50;81.30
47168;DHT22;32931;47.778;17.806;2024-03-23T12:08:14;19.50;80.70
47168;DHT22;32931;47.778;17.806;2024-03-23T12:10:41;19.50;80.60
47168;DHT22;32931;47.778;17.806;2024-03-23T12:13:07;19.50;80.20
47168;DHT22;32931;47.778;17.806;2024-03-23T12:15:33;19.50;79.90
47168;DHT22;32931;47.778;17.806;2024-03-23T12:18:09;19.50;79.70
47168;DHT22;32931;47.778;17.806;2024-03-23T12:20:37;19.60;79.00
47168;DHT22;32931;47.778;17.806;2024-03-23T12:23:11;19.50;79.30
47168;DHT22;32931;47.778;17.806;2024-03-23T12:25:41;19.50;79.20
47168;DHT22;32931;47.778;17.806;2024-03-23T12:28:07;19.50;78.50
47168;DHT22;32931;47.778;17.806;2024-03-23T12:30:35;19.40;78.70
47168;DHT22;32931;47.778;17.806;2024-03-23T12:33:02;19.50;79.00
47168;DHT22;32931;47.778;17.806;2024-03-23T12:35:29;19.50;78.80
47168;DHT22;32931;47.778;17.806;2024-03-23T12:37:55;19.50;78.90
47168;DHT22;32931;47.778;17.806;2024-03-23T12:40:21;19.40;78.70
47168;DHT22;32931;47.778;17.806;2024-03-23T12:42:48;19.50;78.60
47168;DHT22;32931;47.778;17.806;2024-03-23T12:45:14;19.50;78.00
47168;DHT22;32931;47.778;17.806;2024-03-23T12:47:40;19.50;78.20
47168;DHT22;32931;47.778;17.806;2024-03-23T12:50:06;19.50;78.60
47168;DHT22;32931;47.778;17.806;2024-03-23T12:52:33;19.50;78.70
47168;DHT22;32931;47.778;17.806;2024-03-23T12:54:59;19.50;78.70
47168;DHT22;32931;47.778;17.806;2024-03-23T12:57:26;19.60;78.40
47168;DHT22;32931;47.778;17.806;2024-03-23T12:59:52;19.60;78.10
47168;DHT22;32931;47.778;17.806;2024-03-23T13:02:20;19.60;78.20
47168;DHT22;32931;47.778;17.806;2024-03-23T13:04:49;19.60;78.40
47168;DHT22;32931;47.778;17.806;2024-03-23T13:07:16;19.60;78.40
47168;DHT22;32931;47.778;17.806;2024-03-23T13:09:42;19.60;77.80
47168;DHT22;32931;47.778;17.806;2024-03-23T13:12:09;19.70;77.70
47168;DHT22;32931;47.778;17.806;2024-03-23T13:14:35;19.70;78.10
47168;DHT22;32931;47.778;17.806;2024-03-23T13:17:01;19.80;78.00
47168;DHT22;32931;47.778;17.806;2024-03-23T13:19:28;19.90;78.30
47168;DHT22;32931;47.778;17.806;2024-03-23T13:22:00;20.00;77.20
47168;DHT22;32931;47.778;17.806;2024-03-23T13:24:27;20.00;76.30
47168;DHT22;32931;47.778;17.806;2024-03-23T13:26:54;20.00;76.80
47168;DHT22;32931;47.778;17.806;2024-03-23T13:29:21;20.20;76.90
47168;DHT22;32931;47.778;17.806;2024-03-23T13:31:49;20.30;76.80
47168;DHT22;32931;47.778;17.806;2024-03-23T13:34:16;20.50;76.90
47168;DHT22;32931;47.778;17.806;2024-03-23T13:36:45;20.60;76.40
47168;DHT22;32931;47.778;17.806;2024-03-23T13:39:13;20.70;76.60
47168;DHT22;32931;47.778;17.806;2024-03-23T13:44:07;21.00;76.80
47168;DHT22;32931;47.778;17.806;2024-03-23T13:46:33;21.00;75.60
47168;DHT22;32931;47.778;17.806;2024-03-23T13:49:00;21.00;74.70
47168;DHT22;32931;47.778;17.806;2024-03-23T13:51:26;21.00;75.10
47168;DHT22;32931;47.778;17.806;2024-03-23T13:53:54;21.10;74.80
47168;DHT22;32931;47.778;17.806;2024-03-23T13:56:20;21.20;75.10
47168;DHT22;32931;47.778;17.806;2024-03-23T13:58:47;21.30;74.90
47168;DHT22;32931;47.778;17.806;2024-03-23T14:01:14;21.50;74.30
47168;DHT22;32931;47.778;17.806;2024-03-23T14:03:41;21.60;73.70
47168;DHT22;32931;47.778;17.806;2024-03-23T14:06:08;21.80;73.20
47168;DHT22;32931;47.778;17.806;2024-03-23T14:08:35;21.80;72.00
47168;DHT22;32931;47.778;17.806;2024-03-23T14:11:08;22.00;71.00
47168;DHT22;32931;47.778;17.806;2024-03-23T14:13:35;22.20;70.50
47168;DHT22;32931;47.778;17.806;2024-03-23T14:16:01;22.60;70.40
47168;DHT22;32931;47.778;17.806;2024-03-23T14:18:28;22.80;69.60
47168;DHT22;32931;47.778;17.806;2024-03-23T14:20:59;23.20;69.00
47168;DHT22;32931;47.778;17.806;2024-03-23T14:23:29;23.60;66.00
47168;DHT22;32931;47.778;17.806;2024-03-23T14:25:56;23.60;66.10
47168;DHT22;32931;47.778;17.806;2024-03-23T14:28:23;24.00;65.20
47168;DHT22;32931;47.778;17.806;2024-03-23T14:30:50;24.60;65.00
47168;DHT22;32931;47.778;17.806;2024-03-23T14:33:17;24.90;62.80
47168;DHT22;32931;47.778;17.806;2024-03-23T14:35:55;24.90;61.70
47168;DHT22;32931;47.778;17.806;2024-03-23T14:38:24;24.90;60.00
47168;DHT22;32931;47.778;17.806;2024-03-23T14:40:50;24.70;61.10
47168;DHT22;32931;47.778;17.806;2024-03-23T14:43:19;24.70;60.70
47168;DHT22;32931;47.778;17.806;2024-03-23T14:48:33;24.70;58.50
47168;DHT22;32931;47.778;17.806;2024-03-23T14:51:01;24.40;60.00
47168;DHT22;32931;47.778;17.806;2024-03-23T14:53:31;23.90;60.60
47168;DHT22;32931;47.778;17.806;2024-03-23T14:55:57;23.60;61.40
47168;DHT22;32931;47.778;17.806;2024-03-23T14:58:24;23.20;61.30
47168;DHT22;32931;47.778;17.806;2024-03-23T15:00:50;22.80;61.90
47168;DHT22;32931;47.778;17.806;2024-03-23T15:03:18;22.60;62.00
47168;DHT22;32931;47.778;17.806;2024-03-23T15:05:58;22.50;62.30
47168;DHT22;32931;47.778;17.806;2024-03-23T15:08:25;22.90;61.50
47168;DHT22;32931;47.778;17.806;2024-03-23T15:10:51;23.70;62.60
47168;DHT22;32931;47.778;17.806;2024-03-23T15:13:17;23.50;61.50
47168;DHT22;32931;47.778;17.806;2024-03-23T15:15:44;22.90;60.80
47168;DHT22;32931;47.778;17.806;2024-03-23T15:18:11;22.00;66.70
47168;DHT22;32931;47.778;17.806;2024-03-23T15:20:42;20.60;69.80
47168;DHT22;32931;47.778;17.806;2024-03-23T15:23:08;19.60;69.30
47168;DHT22;32931;47.778;17.806;2024-03-23T15:25:34;18.70;71.00
47168;DHT22;32931;47.778;17.806;2024-03-23T15:28:00;18.30;72.30
47168;DHT22;32931;47.778;17.806;2024-03-23T15:30:27;18.10;73.00
47168;DHT22;32931;47.778;17.806;2024-03-23T15:32:54;17.80;73.70
47168;DHT22;32931;47.778;17.806;2024-03-23T15:35:20;17.60;74.20
47168;DHT22;32931;47.778;17.806;2024-03-23T15:37:49;17.40;75.00
47168;DHT22;32931;47.778;17.806;2024-03-23T15:40:15;17.00;75.30
47168;DHT22;32931;47.778;17.806;2024-03-23T15:42:41;16.90;76.00
47168;DHT22;32931;47.778;17.806;2024-03-23T15:45:08;16.70;76.20
47168;DHT22;32931;47.778;17.806;2024-03-23T15:47:35;16.50;76.70
47168;DHT22;32931;47.778;17.806;2024-03-23T15:50:02;16.40;77.00
47168;DHT22;32931;47.778;17.806;2024-03-23T15:52:37;16.30;77.70
47168;DHT22;32931;47.778;17.806;2024-03-23T15:55:04;16.00;78.60
47168;DHT22;32931;47.778;17.806;2024-03-23T15:57:34;15.80;79.20
47168;DHT22;32931;47.778;17.806;2024-03-23T16:00:04;15.70;79.70
47168;DHT22;32931;47.778;17.806;2024-03-23T16:02:30;15.50;80.80
47168;DHT22;32931;47.778;17.806;2024-03-23T16:04:56;15.40;81.30
47168;DHT22;32931;47.778;17.806;2024-03-23T16:07:24;15.40;81.50
47168;DHT22;32931;47.778;17.806;2024-03-23T16:09:50;15.30;82.10
47168;DHT22;32931;47.778;17.806;2024-03-23T16:12:16;15.20;82.60
47168;DHT22;32931;47.778;17.806;2024-03-23T16:14:43;15.10;82.90
47168;DHT22;32931;47.778;17.806;2024-03-23T16:17:09;15.00;83.50
47168;DHT22;32931;47.778;17.806;2024-03-23T16:19:35;14.90;83.50
47168;DHT22;32931;47.778;17.806;2024-03-23T16:22:01;14.80;84.60
47168;DHT22;32931;47.778;17.806;2024-03-23T16:24:27;14.80;84.60